Time;durP1;ratioP1;P1;durP2;ratioP2;P2;SDS_P1;SDS_P2;PMS_P1;PMS_P2;Temp;Humidity;BMP_temperature;BMP_pressure;BME280_temperature;BME280_humidity;BME280_pressure;Samples;Min_cycle;Max_cycle;Signal;HPM_P1;HPM_P2
2023/02/18 00:07:22;;;;;;;8.30;3.20;;;;;;;8.40;91.62;98066.23;437499;1247;99221;-38
2023/02/18 00:17:30;;;;;;;4.90;1.60;;;;;;;8.18;88.78;98080.50;437438;1247;110957;-40
2023/02/18 00:27:37;;;;;;;5.30;1.90;;;;;;;7.90;87.23;98111.30;437613;1247;107827;-38
2023/02/18 00:37:44;;;;;;;2.90;1.00;;;;;;;7.62;86.43;98134.61;437593;1247;98849;-40
2023/02/18 00:47:52;;;;;;;3.80;1.50;;;;;;;7.42;84.97;98124.83;437503;1250;107110;-39
2023/02/18 00:57:59;;;;;;;3.20;1.20;;;;;;;7.25;82.94;98129.16;437539;1250;97999;-39
2023/02/18 01:08:05;;;;;;;2.90;0.70;;;;;;;7.02;80.81;98147.09;437574;1250;111615;-41
2023/02/18 01:18:13;;;;;;;3.10;2.40;;;;;;;6.85;77.83;98164.08;437523;1250;107244;-41
2023/02/18 01:38:27;;;;;;;4.40;2.30;;;;;;;6.50;76.65;98184.23;437603;1247;110694;-39
2023/02/18 01:48:36;;;;;;;5.50;2.40;;;;;;;6.31;76.56;98185.34;437579;1248;107317;-41
2023/02/18 01:58:45;;;;;;;6.00;2.50;;;;;;;6.23;75.65;98186.81;437407;1250;99264;-45
2023/02/18 02:08:58;;;;;;;2.90;1.20;;;;;;;6.21;75.76;98195.52;437628;1250;111125;-40
2023/02/18 02:19:06;;;;;;;1.70;1.10;;;;;;;6.14;75.48;98200.08;438426;1249;107683;-39
2023/02/18 02:29:49;;;;;;;2.90;1.30;;;;;;;6.02;75.29;98201.23;437662;1250;117996;-40
2023/02/18 02:40:02;;;;;;;3.60;1.30;;;;;;;6.02;75.03;98200.39;437408;1250;108331;-40
2023/02/18 02:50:14;;;;;;;5.60;1.80;;;;;;;5.94;75.04;98223.16;437608;1247;97974;-40
2023/02/18 03:00:23;;;;;;;8.60;1.90;;;;;;;5.80;74.21;98240.79;437731;1246;111587;-40
2023/02/18 03:20:51;;;;;;;2.00;0.70;;;;;;;5.48;74.62;98250.20;437598;1247;99263;-40
2023/02/18 03:31:00;;;;;;;3.00;0.90;;;;;;;5.42;74.86;98261.23;437270;1247;395286;-40
2023/02/18 03:41:08;;;;;;;2.90;1.60;;;;;;;5.33;74.61;98266.76;437769;1247;108084;-41
2023/02/18 03:51:14;;;;;;;0.80;0.70;;;;;;;5.19;74.45;98276.63;437599;1249;119806;-40
2023/02/18 04:01:22;;;;;;;1.80;0.70;;;;;;;5.16;73.84;98282.45;437632;1249;109517;-39
2023/02/18 04:11:29;;;;;;;3.10;1.20;;;;;;;5.13;73.95;98292.02;437788;1247;98415;-39
2023/02/18 04:21:36;;;;;;;2.50;0.90;;;;;;;5.00;74.06;98285.14;437794;1247;111838;-41
2023/02/18 04:31:44;;;;;;;5.70;1.00;;;;;;;4.89;74.13;98294.69;437642;1249;108597;-40
2023/02/18 04:41:51;;;;;;;6.60;2.50;;;;;;;4.90;73.90;98298.19;437664;1249;99095;-39
2023/02/18 04:51:59;;;;;;;4.60;1.30;;;;;;;4.95;74.00;98301.29;437641;1247;112768;-40
2023/02/18 05:02:06;;;;;;;2.50;0.70;;;;;;;4.81;74.24;98306.74;437561;1249;108354;-38
2023/02/18 05:12:14;;;;;;;1.00;0.70;;;;;;;4.72;73.27;98304.52;437643;1249;98549;-39
2023/02/18 05:22:21;;;;;;;2.40;0.80;;;;;;;4.63;73.20;98321.38;437606;1249;112505;-40
2023/02/18 05:32:28;;;;;;;2.30;0.50;;;;;;;4.43;73.40;98341.07;437645;1249;109361;-40
2023/02/18 05:42:35;;;;;;;0.90;0.50;;;;;;;4.42;73.26;98346.27;437622;1249;99228;-40
2023/02/18 05:52:43;;;;;;;2.10;0.90;;;;;;;4.45;72.92;98355.85;437686;1249;107434;-40
2023/02/18 06:02:50;;;;;;;5.70;0.80;;;;;;;4.44;72.68;98366.16;437690;1249;99141;-41
2023/02/18 06:12:58;;;;;;;3.20;1.20;;;;;;;4.46;72.18;98373.70;437679;1248;112888;-40
2023/02/18 06:23:06;;;;;;;2.80;1.20;;;;;;;4.56;71.90;98382.65;437758;1249;107229;-40
2023/02/18 06:33:14;;;;;;;3.60;1.10;;;;;;;4.65;71.85;98384.84;437746;1246;99227;-40
2023/02/18 06:43:22;;;;;;;1.40;0.60;;;;;;;4.83;71.62;98391.70;437723;1247;111108;-39
2023/02/18 06:53:29;;;;;;;3.70;1.30;;;;;;;4.98;71.39;98388.55;437718;1247;107735;-40
2023/02/18 07:03:36;;;;;;;9.00;4.60;;;;;;;5.17;70.46;98386.21;437661;1249;99298;-40
2023/02/18 07:13:43;;;;;;;9.30;1.90;;;;;;;5.33;69.94;98385.05;437657;1249;107736;-39
2023/02/18 07:23:50;;;;;;;9.40;3.90;;;;;;;5.35;68.87;98387.59;437622;1249;99221;-40
2023/02/18 07:33:58;;;;;;;10.00;4.50;;;;;;;5.44;67.75;98383.52;437642;1247;110695;-40
2023/02/18 07:44:04;;;;;;;5.60;1.50;;;;;;;5.61;67.09;98383.94;437649;1249;110423;-39
2023/02/18 07:54:08;;;;;;;11.90;4.80;;;;;;;5.75;67.16;98389.99;437685;1249;97976;-41
2023/02/18 08:04:15;;;;;;;6.20;2.90;;;;;;;5.86;66.58;98386.61;437602;1249;110651;-41
2023/02/18 08:14:23;;;;;;;4.40;2.00;;;;;;;6.03;65.87;98388.63;437678;1247;107648;-42
2023/02/18 08:24:30;;;;;;;7.10;1.80;;;;;;;6.27;64.75;98388.43;437684;1247;99061;-40
2023/02/18 08:34:38;;;;;;;6.30;2.80;;;;;;;6.41;65.01;98386.92;437613;1247;111298;-39
2023/02/18 08:44:44;;;;;;;12.70;4.60;;;;;;;6.56;64.68;98385.27;437419;1247;107330;-39
2023/02/18 08:54:51;;;;;;;9.60;5.60;;;;;;;6.70;64.15;98387.46;437565;1247;99218;-40
2023/02/18 09:04:58;;;;;;;11.80;6.60;;;;;;;6.83;63.59;98388.67;437729;1245;112030;-39
2023/02/18 09:15:05;;;;;;;11.20;4.20;;;;;;;6.85;62.79;98380.73;437579;1247;107302;-40
2023/02/18 09:25:11;;;;;;;8.40;2.70;;;;;;;6.81;62.45;98378.10;437770;1249;119099;-41
2023/02/18 09:35:17;;;;;;;5.70;3.80;;;;;;;6.79;61.06;98379.86;437527;1249;109348;-39
2023/02/18 09:45:25;;;;;;;5.80;2.30;;;;;;;6.87;61.05;98373.30;437597;1247;99202;-41
2023/02/18 09:55:37;;;;;;;8.40;5.30;;;;;;;6.91;60.66;98365.84;437688;1247;110244;-40
2023/02/18 10:05:42;;;;;;;7.90;2.90;;;;;;;7.10;60.84;98364.16;437656;1247;107352;-39
2023/02/18 10:15:51;;;;;;;8.70;3.00;;;;;;;7.44;60.83;98356.33;437506;1247;98001;-41
2023/02/18 10:26:02;;;;;;;6.90;2.90;;;;;;;7.71;59.65;98336.61;438523;1247;111402;-39
2023/02/18 10:36:27;;;;;;;8.80;4.50;;;;;;;7.88;58.67;98315.85;437697;1247;107276;-40
2023/02/18 10:46:33;;;;;;;6.50;2.80;;;;;;;7.95;57.89;98303.36;437592;1245;98827;-40
2023/02/18 10:56:42;;;;;;;6.40;2.50;;;;;;;8.09;58.06;98309.34;437680;1250;111206;-40
2023/02/18 11:06:51;;;;;;;7.10;2.80;;;;;;;8.10;58.99;98313.04;438388;1250;106721;-40
2023/02/18 11:17:09;;;;;;;3.30;1.50;;;;;;;7.82;59.24;98308.30;437659;1247;99039;-40
2023/02/18 11:27:17;;;;;;;8.20;2.80;;;;;;;7.36;62.16;98321.14;438428;1248;107697;-40
2023/02/18 11:37:27;;;;;;;5.10;2.20;;;;;;;6.63;65.98;98327.15;437468;1249;97919;-40
2023/02/18 11:47:36;;;;;;;6.80;3.00;;;;;;;6.15;68.09;98321.82;437494;1249;112914;-41
2023/02/18 11:57:47;;;;;;;28.00;10.20;;;;;;;5.84;70.51;98309.70;437617;1249;108721;-40
2023/02/18 12:07:56;;;;;;;10.30;5.90;;;;;;;5.78;71.44;98288.42;437502;1247;99212;-39
2023/02/18 12:18:25;;;;;;;8.20;4.50;;;;;;;5.67;72.68;98268.73;437436;1248;108005;-40
2023/02/18 12:28:32;;;;;;;;;;;;;;;5.76;73.44;98250.33;437539;1249;99259;-39
2023/02/18 12:38:45;;;;;;;3.70;2.30;;;;;;;6.00;74.14;98231.52;437511;1249;110303;-43
2023/02/18 12:49:00;;;;;;;6.00;2.50;;;;;;;5.84;75.08;98217.86;437530;1250;107606;-39
2023/02/18 12:59:06;;;;;;;6.30;3.50;;;;;;;5.62;75.74;98203.65;437601;1245;99218;-40
2023/02/18 13:09:11;;;;;;;5.10;3.40;;;;;;;5.66;76.22;98175.88;437522;1249;109732;-41
2023/02/18 13:19:18;;;;;;;9.30;4.20;;;;;;;5.71;76.71;98152.98;437545;1249;98005;-39
2023/02/18 13:29:32;;;;;;;12.20;5.10;;;;;;;5.70;77.17;98131.59;437599;1246;110318;-40
2023/02/18 13:39:47;;;;;;;8.00;4.30;;;;;;;5.71;77.57;98102.53;437543;1247;108354;-40
2023/02/18 13:49:55;;;;;;;15.80;8.60;;;;;;;5.69;78.06;98060.13;437513;1247;97938;-40
2023/02/18 14:00:06;;;;;;;24.10;12.90;;;;;;;5.66;78.40;98026.17;437523;1249;107198;-40
2023/02/18 14:10:25;;;;;;;19.40;11.00;;;;;;;5.51;78.58;97996.53;437553;1257;98800;-40
2023/02/18 14:20:45;;;;;;;69.60;30.20;;;;;;;5.49;78.87;97964.70;437520;1248;110400;-40
2023/02/18 14:30:53;;;;;;;86.00;46.00;;;;;;;5.48;79.44;97948.32;437481;1250;108518;-40
2023/02/18 14:41:39;;;;;;;23.50;14.70;;;;;;;5.51;79.44;97916.61;437494;1250;99212;-40
2023/02/18 14:51:48;;;;;;;17.10;9.40;;;;;;;5.49;79.99;97882.31;436982;1249;108766;-40
2023/02/18 15:01:54;;;;;;;12.20;6.40;;;;;;;5.43;80.23;97852.52;437558;1260;98699;-40
2023/02/18 15:22:06;;;;;;;15.60;9.40;;;;;;;5.36;80.89;97796.18;437553;1260;107433;-40
2023/02/18 15:32:14;;;;;;;20.60;10.90;;;;;;;5.31;81.48;97770.03;437313;1260;312834;-40
2023/02/18 15:42:23;;;;;;;18.70;11.00;;;;;;;5.28;82.15;97748.57;437640;1251;107387;-40
2023/02/18 15:52:33;;;;;;;21.00;10.90;;;;;;;5.37;82.54;97737.41;437629;1250;98000;-38
2023/02/18 16:23:13;;;;;;;19.50;11.20;;;;;;;5.83;84.68;97728.90;437593;1249;98025;-41
2023/02/18 16:33:21;;;;;;;24.00;13.40;;;;;;;6.09;85.75;97728.15;437561;1249;108647;-39
2023/02/18 16:53:36;;;;;;;12.50;6.10;;;;;;;6.55;86.96;97732.46;437424;1250;111737;-40
2023/02/18 17:03:43;;;;;;;20.20;10.20;;;;;;;6.80;87.89;97713.20;437410;1248;108294;-40
2023/02/18 17:13:56;;;;;;;20.20;9.50;;;;;;;7.05;89.68;97702.57;437581;1260;98018;-40
2023/02/18 17:24:03;;;;;;;21.20;10.10;;;;;;;7.19;90.11;97700.58;437458;1260;107594;-39
2023/02/18 17:34:14;;;;;;;12.90;7.60;;;;;;;7.33;91.30;97699.13;437417;1260;99237;-40
2023/02/18 17:44:23;;;;;;;17.80;8.20;;;;;;;7.54;92.38;97692.19;437425;1248;111148;-41
2023/02/18 17:54:30;;;;;;;10.60;6.00;;;;;;;7.72;92.60;97698.90;437468;1251;108735;-40
2023/02/18 18:04:38;;;;;;;8.00;5.00;;;;;;;7.84;93.06;97704.42;437548;1250;97996;-40
2023/02/18 18:14:45;;;;;;;6.40;5.00;;;;;;;7.88;93.40;97713.77;437490;1248;108540;-41
2023/02/18 18:24:55;;;;;;;6.20;4.70;;;;;;;7.89;93.50;97717.63;437517;1247;99197;-40
2023/02/18 18:35:02;;;;;;;6.60;3.90;;;;;;;7.90;93.79;97718.10;437456;1248;111028;-40
2023/02/18 18:45:16;;;;;;;6.70;3.90;;;;;;;7.91;93.95;97730.83;437564;1248;108541;-40
2023/02/18 18:55:58;;;;;;;4.80;2.80;;;;;;;7.88;94.22;97793.89;437439;1246;99119;-41
2023/02/18 19:06:06;;;;;;;3.60;2.50;;;;;;;7.83;94.52;97808.41;437626;1250;107743;-41
2023/02/18 19:16:13;;;;;;;14.30;6.00;;;;;;;7.76;94.13;97841.14;437587;1248;99208;-40
2023/02/18 19:26:19;;;;;;;7.70;5.40;;;;;;;7.55;93.87;97855.42;437547;1250;111740;-41
2023/02/18 19:36:26;;;;;;;5.80;3.80;;;;;;;7.40;93.54;97859.66;437471;1251;108420;-40
2023/02/18 19:46:34;;;;;;;15.00;5.70;;;;;;;7.37;93.46;97874.80;437579;1249;99106;-41
2023/02/18 19:56:41;;;;;;;7.90;4.50;;;;;;;7.39;93.80;97888.41;437533;1248;108226;-40
2023/02/18 20:06:48;;;;;;;5.60;2.70;;;;;;;7.42;94.24;97900.90;437709;1248;97974;-41
2023/02/18 20:16:54;;;;;;;5.10;3.50;;;;;;;7.42;94.45;97936.34;437513;1251;111727;-40
2023/02/18 20:27:02;;;;;;;3.80;2.20;;;;;;;7.29;94.74;97962.39;437507;1251;107406;-40
2023/02/18 20:37:09;;;;;;;6.00;3.40;;;;;;;7.04;94.42;97955.78;437556;1251;97960;-39
2023/02/18 20:47:17;;;;;;;3.70;2.50;;;;;;;6.70;93.83;97987.77;437530;1260;107975;-40
2023/02/18 20:57:25;;;;;;;4.90;2.50;;;;;;;6.48;94.16;97995.31;437632;1247;99229;-41
2023/02/18 21:07:32;;;;;;;4.60;3.20;;;;;;;6.25;93.82;97995.83;437725;1250;112983;-40
2023/02/18 21:17:40;;;;;;;6.70;4.60;;;;;;;6.05;94.06;98011.84;437492;1248;106796;-40
2023/02/18 21:27:47;;;;;;;15.10;7.10;;;;;;;5.89;93.95;98036.79;437718;1251;99221;-39
2023/02/18 21:37:54;;;;;;;7.50;4.30;;;;;;;5.72;93.90;98070.99;437607;1250;108476;-40
2023/02/18 21:58:12;;;;;;;9.00;5.30;;;;;;;5.35;93.26;98087.05;437563;1247;111553;-40
2023/02/18 22:08:20;;;;;;;13.60;6.80;;;;;;;5.19;93.31;98113.42;437407;1250;107936;-39
2023/02/18 22:18:30;;;;;;;10.90;7.40;;;;;;;5.05;93.16;98133.89;437665;1246;99230;-40
2023/02/18 22:28:38;;;;;;;7.90;5.50;;;;;;;4.95;93.04;98161.23;437587;1249;109749;-40
2023/02/18 22:38:45;;;;;;;9.10;6.40;;;;;;;4.93;93.05;98160.23;437638;1247;98826;-40
2023/02/18 22:48:54;;;;;;;11.80;6.90;;;;;;;4.91;92.97;98190.05;437581;1247;112150;-40
2023/02/18 22:59:01;;;;;;;15.40;9.20;;;;;;;4.93;92.91;98210.20;437604;1247;107135;-40
2023/02/18 23:09:13;;;;;;;14.10;8.10;;;;;;;4.93;92.74;98222.25;437626;1246;98806;-40
2023/02/18 23:19:20;;;;;;;9.80;7.10;;;;;;;4.92;92.73;98229.30;437541;1250;107820;-40
2023/02/18 23:29:27;;;;;;;11.90;6.20;;;;;;;4.92;92.65;98242.52;437507;1247;99313;-40
2023/02/18 23:39:35;;;;;;;7.20;5.40;;;;;;;4.90;92.55;98234.52;437767;1246;113880;-39
2023/02/18 23:49:42;;;;;;;8.60;5.20;;;;;;;4.82;92.28;98238.23;437722;1249;107798;-39
2023/02/18 23:59:49;;;;;;;8.30;4.30;;;;;;;4.76;92.14;98233.60;437562;1249;97992;-40
